createdAt,value
2023-03-12T00:00:22.447Z,3.60
2023-03-12T00:03:08.446Z,4.00
2023-03-12T00:05:54.101Z,3.67
2023-03-12T00:08:40.555Z,3.58
2023-03-12T00:11:26.668Z,3.45
2023-03-12T00:14:12.364Z,3.67
2023-03-12T00:16:59.568Z,4.13
2023-03-12T00:19:45.442Z,3.65
2023-03-12T00:22:31.393Z,3.92
2023-03-12T00:25:17.495Z,3.80
2023-03-12T00:28:03.132Z,3.53
2023-03-12T00:30:49.039Z,3.38
2023-03-12T00:33:36.025Z,3.50
2023-03-12T00:36:26.738Z,3.47
2023-03-12T00:39:12.776Z,3.70
2023-03-12T00:44:44.900Z,3.50
2023-03-12T00:47:30.953Z,3.38
2023-03-12T00:50:18.204Z,3.03
2023-03-12T00:53:03.674Z,2.80
2023-03-12T00:55:49.293Z,3.10
2023-03-12T00:58:34.981Z,3.05
2023-03-12T01:01:20.659Z,3.03
2023-03-12T01:04:06.511Z,3.03
2023-03-12T01:06:55.714Z,2.78
2023-03-12T01:09:41.808Z,3.05
2023-03-12T01:12:27.520Z,2.78
2023-03-12T01:15:15.209Z,2.85
2023-03-12T01:18:01.161Z,3.35
2023-03-12T01:20:47.192Z,2.92
2023-03-12T01:23:34.246Z,2.85
2023-03-12T01:26:19.891Z,2.90
2023-03-12T01:29:05.530Z,2.60
2023-03-12T01:31:52.303Z,3.05
2023-03-12T01:34:38.125Z,2.78
2023-03-12T01:37:23.559Z,2.72
2023-03-12T01:40:15.878Z,2.63
2023-03-12T01:43:25.179Z,2.97
2023-03-12T01:46:28.465Z,2.58
2023-03-12T01:49:19.150Z,2.50
2023-03-12T01:52:07.279Z,2.88
2023-03-12T01:55:02.853Z,2.83
2023-03-12T02:00:39.934Z,2.20
2023-03-12T02:03:25.828Z,2.15
2023-03-12T02:06:15.472Z,2.42
2023-03-12T02:09:05.889Z,2.60
2023-03-12T02:11:52.164Z,2.58
2023-03-12T02:14:43.774Z,2.72
2023-03-12T02:17:31.742Z,2.35
2023-03-12T02:20:22.377Z,2.65
2023-03-12T02:23:13.322Z,2.50
2023-03-12T02:37:09.344Z,2.33
2023-03-12T02:40:00.077Z,2.50
2023-03-12T02:42:47.159Z,2.30
2023-03-12T02:45:34.171Z,2.15
2023-03-12T02:48:20.163Z,3.03
2023-03-12T02:51:06.284Z,2.50
2023-03-12T02:53:54.966Z,2.30
2023-03-12T02:56:41.749Z,2.35
2023-03-12T02:59:29.223Z,2.15
2023-03-12T03:02:16.680Z,2.60
2023-03-12T03:05:02.630Z,2.50
2023-03-12T03:07:48.174Z,2.20
2023-03-12T03:10:34.603Z,2.20
2023-03-12T03:13:20.409Z,2.40
2023-03-12T03:16:08.724Z,2.30
2023-03-12T03:18:54.291Z,2.50
2023-03-12T03:21:40.051Z,3.08
2023-03-12T03:24:25.702Z,2.90
2023-03-12T03:27:11.661Z,2.45
2023-03-12T03:29:57.755Z,2.65
2023-03-12T03:32:45.010Z,2.10
2023-03-12T03:35:33.489Z,2.75
2023-03-12T03:38:20.048Z,2.05
2023-03-12T03:41:05.584Z,1.95
2023-03-12T03:43:57.828Z,1.90
2023-03-12T03:46:47.928Z,2.03
2023-03-12T03:57:46.540Z,2.15
2023-03-12T04:03:21.110Z,2.40
2023-03-12T04:06:07.803Z,2.33
2023-03-12T04:08:54.370Z,2.50
2023-03-12T04:11:44.325Z,2.40
2023-03-12T04:14:31.923Z,2.53
2023-03-12T04:17:17.363Z,2.38
2023-03-12T04:20:07.338Z,2.95
2023-03-12T04:28:26.081Z,2.95
2023-03-12T04:39:37.907Z,3.10
2023-03-12T04:42:23.882Z,2.70
2023-03-12T04:53:32.712Z,3.10
2023-03-12T04:56:18.925Z,2.80
2023-03-12T04:59:06.393Z,3.17
2023-03-12T05:01:54.388Z,3.15
2023-03-12T05:04:45.146Z,3.40
2023-03-12T05:07:30.852Z,3.17
2023-03-12T05:13:03.872Z,3.15
2023-03-12T05:15:50.794Z,3.15
2023-03-12T05:18:39.112Z,3.35
2023-03-12T05:21:25.057Z,3.58
2023-03-12T05:24:13.979Z,3.55
2023-03-12T05:26:59.806Z,3.20
2023-03-12T05:29:46.359Z,3.23
2023-03-12T05:38:06.100Z,3.50
2023-03-12T05:40:53.416Z,3.10
2023-03-12T05:54:47.037Z,3.95
2023-03-12T06:19:52.999Z,3.50
2023-03-12T07:29:05.153Z,5.07
2023-03-12T07:34:38.740Z,7.90
2023-03-12T07:42:56.432Z,8.90
2023-03-12T07:45:42.261Z,6.82
2023-03-12T07:56:46.519Z,6.80
2023-03-12T07:59:32.436Z,6.60
2023-03-12T08:02:18.244Z,6.55
2023-03-12T08:05:06.502Z,6.70
2023-03-12T11:32:03.866Z,10.60
2023-03-12T11:34:50.918Z,9.73
2023-03-12T11:37:49.134Z,9.57
2023-03-12T11:40:56.880Z,9.70
2023-03-12T11:43:54.798Z,8.93
2023-03-12T11:46:51.359Z,8.18
2023-03-12T11:49:56.050Z,8.38
2023-03-12T11:52:55.635Z,7.20
2023-03-12T11:56:02.803Z,6.95
2023-03-12T11:59:10.333Z,8.07
2023-03-12T12:02:13.394Z,7.57
2023-03-12T12:05:21.907Z,6.75
2023-03-12T12:08:26.134Z,6.50
2023-03-12T12:11:18.736Z,6.03
2023-03-12T12:14:15.738Z,6.03
2023-03-12T12:17:16.629Z,6.53
2023-03-12T12:20:21.582Z,6.20
2023-03-12T12:23:17.709Z,6.45
2023-03-12T12:26:07.883Z,5.80
2023-03-12T12:29:28.934Z,5.32
2023-03-12T12:32:23.809Z,6.25
2023-03-12T12:35:21.473Z,6.03
2023-03-12T12:38:12.389Z,6.50
2023-03-12T12:41:07.924Z,5.55
2023-03-12T12:43:58.012Z,6.00
2023-03-12T12:46:48.177Z,6.20
2023-03-12T12:49:43.592Z,6.25
2023-03-12T12:52:31.173Z,5.55
2023-03-12T12:55:22.758Z,6.50
2023-03-12T12:58:14.871Z,6.45
2023-03-12T13:01:02.180Z,6.25
2023-03-12T13:03:49.475Z,7.18
2023-03-12T13:07:01.311Z,5.60
2023-03-12T13:09:52.773Z,4.85
2023-03-12T13:12:47.842Z,5.85
2023-03-12T13:15:40.255Z,5.43
2023-03-12T13:18:28.081Z,6.05
2023-03-12T13:21:23.523Z,6.10
2023-03-12T13:24:21.148Z,6.38
2023-03-12T13:27:17.994Z,6.15
2023-03-12T13:30:42.730Z,4.40
2023-03-12T13:33:42.276Z,4.68
2023-03-12T13:36:33.636Z,5.30
2023-03-12T13:39:28.285Z,4.82
2023-03-12T13:42:37.715Z,5.38
2023-03-12T13:45:27.304Z,5.75
2023-03-12T13:48:17.341Z,4.80
2023-03-12T13:51:15.309Z,4.85
2023-03-12T13:54:03.844Z,5.40
2023-03-12T13:56:58.921Z,4.63
2023-03-12T13:59:50.486Z,5.15
2023-03-12T14:02:43.189Z,4.82
2023-03-12T14:05:30.784Z,5.43
2023-03-12T14:08:28.320Z,5.00
2023-03-12T14:11:24.142Z,4.72
2023-03-12T14:14:48.068Z,4.55
2023-03-12T14:17:37.930Z,3.95
2023-03-12T14:20:24.343Z,4.40
2023-03-12T14:23:15.321Z,4.40
2023-03-12T14:26:04.273Z,4.15
2023-03-12T14:28:57.717Z,4.78
